sensor_id;sensor_type;location;lat;lon;timestamp;pressure;altitude;pressure_sealevel;temperature
20733;BMP180;10527;52.124;5.196;2023-03-12T00:00:09;100980.00;;;14.00
20733;BMP180;10527;52.124;5.196;2023-03-12T00:02:36;100966.00;;;14.00
20733;BMP180;10527;52.124;5.196;2023-03-12T00:05:04;100967.00;;;14.00
20733;BMP180;10527;52.124;5.196;2023-03-12T00:07:31;100959.00;;;14.00
20733;BMP180;10527;52.124;5.196;2023-03-12T00:09:58;100959.00;;;14.00
20733;BMP180;10527;52.124;5.196;2023-03-12T00:12:25;100958.00;;;14.00
20733;BMP180;10527;52.124;5.196;2023-03-12T00:14:51;100962.00;;;14.00
20733;BMP180;10527;52.124;5.196;2023-03-12T00:17:18;100952.00;;;14.00
20733;BMP180;10527;52.124;5.196;2023-03-12T00:19:45;100955.00;;;14.00
20733;BMP180;10527;52.124;5.196;2023-03-12T00:22:12;100950.00;;;14.00
20733;BMP180;10527;52.124;5.196;2023-03-12T00:24:42;100949.00;;;14.00
20733;BMP180;10527;52.124;5.196;2023-03-12T00:27:09;100947.00;;;14.00
20733;BMP180;10527;52.124;5.196;2023-03-12T00:29:35;100962.00;;;14.00
20733;BMP180;10527;52.124;5.196;2023-03-12T00:32:02;100953.00;;;14.00
20733;BMP180;10527;52.124;5.196;2023-03-12T00:34:31;100949.00;;;14.00
20733;BMP180;10527;52.124;5.196;2023-03-12T00:37:01;100960.00;;;14.10
20733;BMP180;10527;52.124;5.196;2023-03-12T00:39:31;100960.00;;;14.10
20733;BMP180;10527;52.124;5.196;2023-03-12T00:41:58;100954.00;;;14.10
20733;BMP180;10527;52.124;5.196;2023-03-12T00:44:25;100952.00;;;14.10
20733;BMP180;10527;52.124;5.196;2023-03-12T00:46:52;100947.00;;;14.10
20733;BMP180;10527;52.124;5.196;2023-03-12T00:49:22;100951.00;;;14.10
20733;BMP180;10527;52.124;5.196;2023-03-12T00:51:48;100945.00;;;14.10
20733;BMP180;10527;52.124;5.196;2023-03-12T00:54:15;100935.00;;;14.10
20733;BMP180;10527;52.124;5.196;2023-03-12T00:56:42;100932.00;;;14.10
20733;BMP180;10527;52.124;5.196;2023-03-12T00:59:10;100927.00;;;14.10
20733;BMP180;10527;52.124;5.196;2023-03-12T01:01:40;100924.00;;;14.10
20733;BMP180;10527;52.124;5.196;2023-03-12T01:04:08;100917.00;;;14.10
20733;BMP180;10527;52.124;5.196;2023-03-12T01:06:35;100906.00;;;14.10
20733;BMP180;10527;52.124;5.196;2023-03-12T01:09:04;100906.00;;;14.10
20733;BMP180;10527;52.124;5.196;2023-03-12T01:11:32;100916.00;;;14.10
20733;BMP180;10527;52.124;5.196;2023-03-12T01:14:00;100907.00;;;14.10
20733;BMP180;10527;52.124;5.196;2023-03-12T01:16:28;100911.00;;;14.00
20733;BMP180;10527;52.124;5.196;2023-03-12T01:18:58;100913.00;;;14.00
20733;BMP180;10527;52.124;5.196;2023-03-12T01:21:27;100909.00;;;14.00
20733;BMP180;10527;52.124;5.196;2023-03-12T01:23:55;100921.00;;;14.00
20733;BMP180;10527;52.124;5.196;2023-03-12T01:26:23;100924.00;;;14.00
20733;BMP180;10527;52.124;5.196;2023-03-12T01:28:50;100923.00;;;14.00
20733;BMP180;10527;52.124;5.196;2023-03-12T01:31:18;100923.00;;;14.00
20733;BMP180;10527;52.124;5.196;2023-03-12T01:33:50;100912.00;;;14.00
20733;BMP180;10527;52.124;5.196;2023-03-12T01:36:21;100923.00;;;14.00
20733;BMP180;10527;52.124;5.196;2023-03-12T01:38:54;100910.00;;;14.00
20733;BMP180;10527;52.124;5.196;2023-03-12T01:41:24;100911.00;;;13.90
20733;BMP180;10527;52.124;5.196;2023-03-12T01:43:51;100911.00;;;13.90
20733;BMP180;10527;52.124;5.196;2023-03-12T01:46:47;100903.00;;;14.00
20733;BMP180;10527;52.124;5.196;2023-03-12T01:49:31;100898.00;;;14.00
20733;BMP180;10527;52.124;5.196;2023-03-12T01:52:07;100893.00;;;13.90
20733;BMP180;10527;52.124;5.196;2023-03-12T01:54:40;100891.00;;;13.90
20733;BMP180;10527;52.124;5.196;2023-03-12T01:57:18;100885.00;;;13.90
20733;BMP180;10527;52.124;5.196;2023-03-12T01:59:56;100889.00;;;13.90
20733;BMP180;10527;52.124;5.196;2023-03-12T02:02:25;100888.00;;;13.90
20733;BMP180;10527;52.124;5.196;2023-03-12T02:05:23;100880.00;;;13.90
20733;BMP180;10527;52.124;5.196;2023-03-12T02:07:51;100880.00;;;13.90
20733;BMP180;10527;52.124;5.196;2023-03-12T02:10:21;100879.00;;;13.90
20733;BMP180;10527;52.124;5.196;2023-03-12T02:12:48;100874.00;;;13.90
20733;BMP180;10527;52.124;5.196;2023-03-12T02:15:15;100861.00;;;13.90
20733;BMP180;10527;52.124;5.196;2023-03-12T02:17:42;100866.00;;;13.90
20733;BMP180;10527;52.124;5.196;2023-03-12T02:20:27;100861.00;;;13.90
20733;BMP180;10527;52.124;5.196;2023-03-12T02:23:24;100853.00;;;13.90
20733;BMP180;10527;52.124;5.196;2023-03-12T02:26:00;100855.00;;;13.80
20733;BMP180;10527;52.124;5.196;2023-03-12T02:28:34;100848.00;;;13.90
20733;BMP180;10527;52.124;5.196;2023-03-12T02:31:32;100836.00;;;13.90
20733;BMP180;10527;52.124;5.196;2023-03-12T02:34:02;100830.00;;;13.90
20733;BMP180;10527;52.124;5.196;2023-03-12T02:36:29;100832.00;;;13.90
20733;BMP180;10527;52.124;5.196;2023-03-12T02:38:56;100826.00;;;13.90
20733;BMP180;10527;52.124;5.196;2023-03-12T02:41:43;100830.00;;;13.90
20733;BMP180;10527;52.124;5.196;2023-03-12T02:44:27;100821.00;;;13.90
20733;BMP180;10527;52.124;5.196;2023-03-12T02:46:57;100813.00;;;13.90
20733;BMP180;10527;52.124;5.196;2023-03-12T02:49:29;100800.00;;;13.90
20733;BMP180;10527;52.124;5.196;2023-03-12T02:52:00;100811.00;;;14.00
20733;BMP180;10527;52.124;5.196;2023-03-12T02:54:28;100803.00;;;13.90
20733;BMP180;10527;52.124;5.196;2023-03-12T02:56:55;100800.00;;;14.00
20733;BMP180;10527;52.124;5.196;2023-03-12T02:59:23;100789.00;;;14.00
20733;BMP180;10527;52.124;5.196;2023-03-12T03:01:55;100796.00;;;14.00
20733;BMP180;10527;52.124;5.196;2023-03-12T03:04:24;100797.00;;;14.00
20733;BMP180;10527;52.124;5.196;2023-03-12T03:06:52;100800.00;;;14.00
20733;BMP180;10527;52.124;5.196;2023-03-12T03:09:19;100797.00;;;14.00
20733;BMP180;10527;52.124;5.196;2023-03-12T03:11:49;100792.00;;;13.90
20733;BMP180;10527;52.124;5.196;2023-03-12T03:14:17;100792.00;;;14.00
20733;BMP180;10527;52.124;5.196;2023-03-12T03:16:44;100780.00;;;13.90
20733;BMP180;10527;52.124;5.196;2023-03-12T03:19:11;100773.00;;;13.90
20733;BMP180;10527;52.124;5.196;2023-03-12T03:21:38;100771.00;;;13.90
20733;BMP180;10527;52.124;5.196;2023-03-12T03:24:05;100757.00;;;13.90
20733;BMP180;10527;52.124;5.196;2023-03-12T03:26:35;100757.00;;;13.90
20733;BMP180;10527;52.124;5.196;2023-03-12T03:29:05;100752.00;;;13.90
20733;BMP180;10527;52.124;5.196;2023-03-12T03:31:32;100738.00;;;13.90
20733;BMP180;10527;52.124;5.196;2023-03-12T03:33:59;100742.00;;;14.00
20733;BMP180;10527;52.124;5.196;2023-03-12T03:36:26;100725.00;;;13.90
20733;BMP180;10527;52.124;5.196;2023-03-12T03:38:59;100742.00;;;13.90
20733;BMP180;10527;52.124;5.196;2023-03-12T03:41:25;100744.00;;;14.00
20733;BMP180;10527;52.124;5.196;2023-03-12T03:43:56;100746.00;;;14.00
20733;BMP180;10527;52.124;5.196;2023-03-12T03:46:24;100739.00;;;14.00
20733;BMP180;10527;52.124;5.196;2023-03-12T03:48:52;100730.00;;;13.90
20733;BMP180;10527;52.124;5.196;2023-03-12T03:51:18;100730.00;;;13.90
20733;BMP180;10527;52.124;5.196;2023-03-12T03:53:47;100738.00;;;13.90
20733;BMP180;10527;52.124;5.196;2023-03-12T03:56:15;100731.00;;;13.90
20733;BMP180;10527;52.124;5.196;2023-03-12T03:58:42;100730.00;;;13.90
20733;BMP180;10527;52.124;5.196;2023-03-12T04:01:13;100730.00;;;13.90
20733;BMP180;10527;52.124;5.196;2023-03-12T04:03:40;100732.00;;;13.90
20733;BMP180;10527;52.124;5.196;2023-03-12T04:06:07;100724.00;;;13.80
20733;BMP180;10527;52.124;5.196;2023-03-12T04:08:38;100723.00;;;13.80
20733;BMP180;10527;52.124;5.196;2023-03-12T04:11:17;100733.00;;;13.90
20733;BMP180;10527;52.124;5.196;2023-03-12T04:13:45;100729.00;;;13.80
20733;BMP180;10527;52.124;5.196;2023-03-12T04:16:16;100726.00;;;13.80
20733;BMP180;10527;52.124;5.196;2023-03-12T04:18:43;100711.00;;;13.80
20733;BMP180;10527;52.124;5.196;2023-03-12T04:21:12;100714.00;;;13.80
20733;BMP180;10527;52.124;5.196;2023-03-12T04:23:39;100711.00;;;13.80
20733;BMP180;10527;52.124;5.196;2023-03-12T04:26:06;100712.00;;;13.80
20733;BMP180;10527;52.124;5.196;2023-03-12T04:28:34;100709.00;;;13.80
20733;BMP180;10527;52.124;5.196;2023-03-12T04:31:05;100693.00;;;13.80
20733;BMP180;10527;52.124;5.196;2023-03-12T04:33:36;100689.00;;;13.90
20733;BMP180;10527;52.124;5.196;2023-03-12T04:36:05;100690.00;;;13.90
20733;BMP180;10527;52.124;5.196;2023-03-12T04:38:35;100680.00;;;13.90
20733;BMP180;10527;52.124;5.196;2023-03-12T04:41:09;100675.00;;;13.80
20733;BMP180;10527;52.124;5.196;2023-03-12T04:43:37;100675.00;;;13.80
20733;BMP180;10527;52.124;5.196;2023-03-12T04:46:07;100665.00;;;13.90
20733;BMP180;10527;52.124;5.196;2023-03-12T04:48:35;100657.00;;;13.80
20733;BMP180;10527;52.124;5.196;2023-03-12T04:51:03;100651.00;;;13.80
20733;BMP180;10527;52.124;5.196;2023-03-12T04:53:30;100645.00;;;13.80
20733;BMP180;10527;52.124;5.196;2023-03-12T04:55:57;100633.00;;;13.80
20733;BMP180;10527;52.124;5.196;2023-03-12T04:58:33;100633.00;;;13.80
20733;BMP180;10527;52.124;5.196;2023-03-12T05:01:01;100632.00;;;13.80
20733;BMP180;10527;52.124;5.196;2023-03-12T05:03:35;100631.00;;;13.80
20733;BMP180;10527;52.124;5.196;2023-03-12T05:06:04;100619.00;;;13.80
20733;BMP180;10527;52.124;5.196;2023-03-12T05:08:31;100619.00;;;13.80
20733;BMP180;10527;52.124;5.196;2023-03-12T05:10:57;100606.00;;;13.80
20733;BMP180;10527;52.124;5.196;2023-03-12T05:13:24;100613.00;;;13.80
20733;BMP180;10527;52.124;5.196;2023-03-12T05:15:51;100602.00;;;13.80
20733;BMP180;10527;52.124;5.196;2023-03-12T05:18:24;100608.00;;;13.80
20733;BMP180;10527;52.124;5.196;2023-03-12T05:21:11;100603.00;;;13.80
20733;BMP180;10527;52.124;5.196;2023-03-12T05:23:43;100619.00;;;13.70
20733;BMP180;10527;52.124;5.196;2023-03-12T05:26:23;100609.00;;;13.70
20733;BMP180;10527;52.124;5.196;2023-03-12T05:28:51;100595.00;;;13.70
20733;BMP180;10527;52.124;5.196;2023-03-12T05:31:19;100600.00;;;13.70
20733;BMP180;10527;52.124;5.196;2023-03-12T05:33:48;100604.00;;;13.70
20733;BMP180;10527;52.124;5.196;2023-03-12T05:36:19;100603.00;;;13.70
20733;BMP180;10527;52.124;5.196;2023-03-12T05:38:46;100596.00;;;13.70
20733;BMP180;10527;52.124;5.196;2023-03-12T05:41:24;100610.00;;;13.80
20733;BMP180;10527;52.124;5.196;2023-03-12T05:43:54;100594.00;;;13.70
20733;BMP180;10527;52.124;5.196;2023-03-12T05:46:24;100599.00;;;13.70
20733;BMP180;10527;52.124;5.196;2023-03-12T05:48:54;100590.00;;;13.70
20733;BMP180;10527;52.124;5.196;2023-03-12T05:51:21;100588.00;;;13.70
20733;BMP180;10527;52.124;5.196;2023-03-12T05:53:50;100594.00;;;13.80
20733;BMP180;10527;52.124;5.196;2023-03-12T05:56:17;100594.00;;;13.80
20733;BMP180;10527;52.124;5.196;2023-03-12T05:58:47;100594.00;;;13.80
20733;BMP180;10527;52.124;5.196;2023-03-12T06:01:23;100595.00;;;13.80
20733;BMP180;10527;52.124;5.196;2023-03-12T06:03:54;100602.00;;;13.80
20733;BMP180;10527;52.124;5.196;2023-03-12T06:06:21;100600.00;;;13.90
20733;BMP180;10527;52.124;5.196;2023-03-12T06:08:49;100596.00;;;13.90
20733;BMP180;10527;52.124;5.196;2023-03-12T06:11:16;100582.00;;;13.90
20733;BMP180;10527;52.124;5.196;2023-03-12T06:13:43;100599.00;;;13.80
20733;BMP180;10527;52.124;5.196;2023-03-12T06:16:25;100605.00;;;13.80
20733;BMP180;10527;52.124;5.196;2023-03-12T06:18:58;100606.00;;;13.80
20733;BMP180;10527;52.124;5.196;2023-03-12T06:21:29;100591.00;;;13.70
20733;BMP180;10527;52.124;5.196;2023-03-12T06:24:01;100593.00;;;13.70
20733;BMP180;10527;52.124;5.196;2023-03-12T06:26:28;100587.00;;;13.70
20733;BMP180;10527;52.124;5.196;2023-03-12T06:28:55;100599.00;;;13.70
20733;BMP180;10527;52.124;5.196;2023-03-12T06:31:23;100579.00;;;13.70
20733;BMP180;10527;52.124;5.196;2023-03-12T06:33:50;100567.00;;;13.70
20733;BMP180;10527;52.124;5.196;2023-03-12T06:36:17;100572.00;;;13.70
20733;BMP180;10527;52.124;5.196;2023-03-12T06:38:47;100572.00;;;13.70
20733;BMP180;10527;52.124;5.196;2023-03-12T06:41:17;100564.00;;;13.70
20733;BMP180;10527;52.124;5.196;2023-03-12T06:43:47;100556.00;;;13.70
20733;BMP180;10527;52.124;5.196;2023-03-12T06:46:19;100571.00;;;13.70
20733;BMP180;10527;52.124;5.196;2023-03-12T06:48:51;100555.00;;;13.70
20733;BMP180;10527;52.124;5.196;2023-03-12T06:51:18;100551.00;;;13.70
20733;BMP180;10527;52.124;5.196;2023-03-12T06:53:47;100555.00;;;13.70
20733;BMP180;10527;52.124;5.196;2023-03-12T06:56:17;100548.00;;;13.70
20733;BMP180;10527;52.124;5.196;2023-03-12T06:58:48;100544.00;;;13.70
20733;BMP180;10527;52.124;5.196;2023-03-12T07:01:15;100533.00;;;13.70
20733;BMP180;10527;52.124;5.196;2023-03-12T07:03:42;100527.00;;;13.70
20733;BMP180;10527;52.124;5.196;2023-03-12T07:06:20;100522.00;;;13.80
20733;BMP180;10527;52.124;5.196;2023-03-12T07:08:47;100511.00;;;13.70
20733;BMP180;10527;52.124;5.196;2023-03-12T07:11:14;100515.00;;;13.70
20733;BMP180;10527;52.124;5.196;2023-03-12T07:13:41;100527.00;;;13.70
20733;BMP180;10527;52.124;5.196;2023-03-12T07:16:09;100513.00;;;13.80
20733;BMP180;10527;52.124;5.196;2023-03-12T07:18:36;100525.00;;;13.80
20733;BMP180;10527;52.124;5.196;2023-03-12T07:21:03;100525.00;;;13.80
20733;BMP180;10527;52.124;5.196;2023-03-12T07:23:30;100527.00;;;13.80
20733;BMP180;10527;52.124;5.196;2023-03-12T07:26:03;100522.00;;;13.80
20733;BMP180;10527;52.124;5.196;2023-03-12T07:28:30;100518.00;;;13.80
20733;BMP180;10527;52.124;5.196;2023-03-12T07:31:10;100551.00;;;13.80
20733;BMP180;10527;52.124;5.196;2023-03-12T07:33:37;100554.00;;;13.80
20733;BMP180;10527;52.124;5.196;2023-03-12T07:36:04;100547.00;;;13.80
20733;BMP180;10527;52.124;5.196;2023-03-12T07:38:32;100560.00;;;13.90
20733;BMP180;10527;52.124;5.196;2023-03-12T07:40:59;100558.00;;;13.90
20733;BMP180;10527;52.124;5.196;2023-03-12T07:43:28;100551.00;;;13.90
20733;BMP180;10527;52.124;5.196;2023-03-12T07:46:02;100566.00;;;13.90
20733;BMP180;10527;52.124;5.196;2023-03-12T07:48:29;100554.00;;;13.90
20733;BMP180;10527;52.124;5.196;2023-03-12T07:50:56;100551.00;;;13.90
20733;BMP180;10527;52.124;5.196;2023-03-12T07:53:23;100556.00;;;13.90
20733;BMP180;10527;52.124;5.196;2023-03-12T07:55:50;100558.00;;;13.90
20733;BMP180;10527;52.124;5.196;2023-03-12T07:58:26;100556.00;;;14.00
20733;BMP180;10527;52.124;5.196;2023-03-12T08:00:56;100562.00;;;14.00
20733;BMP180;10527;52.124;5.196;2023-03-12T08:03:23;100552.00;;;14.00
20733;BMP180;10527;52.124;5.196;2023-03-12T08:06:02;100549.00;;;14.00
20733;BMP180;10527;52.124;5.196;2023-03-12T08:08:33;100535.00;;;14.10
20733;BMP180;10527;52.124;5.196;2023-03-12T08:11:03;100548.00;;;14.10
20733;BMP180;10527;52.124;5.196;2023-03-12T08:13:30;100541.00;;;14.10
20733;BMP180;10527;52.124;5.196;2023-03-12T08:15:57;100548.00;;;14.10
20733;BMP180;10527;52.124;5.196;2023-03-12T08:18:25;100557.00;;;14.20
20733;BMP180;10527;52.124;5.196;2023-03-12T08:20:54;100547.00;;;14.20
20733;BMP180;10527;52.124;5.196;2023-03-12T08:23:23;100555.00;;;14.20
20733;BMP180;10527;52.124;5.196;2023-03-12T08:25:50;100553.00;;;14.30
20733;BMP180;10527;52.124;5.196;2023-03-12T08:28:18;100543.00;;;14.30
20733;BMP180;10527;52.124;5.196;2023-03-12T08:30:54;100541.00;;;14.30
20733;BMP180;10527;52.124;5.196;2023-03-12T08:33:21;100554.00;;;14.30
20733;BMP180;10527;52.124;5.196;2023-03-12T08:35:48;100551.00;;;14.30
20733;BMP180;10527;52.124;5.196;2023-03-12T08:38:16;100554.00;;;14.40
20733;BMP180;10527;52.124;5.196;2023-03-12T08:40:43;100549.00;;;14.40
20733;BMP180;10527;52.124;5.196;2023-03-12T08:43:12;100559.00;;;14.40
20733;BMP180;10527;52.124;5.196;2023-03-12T08:45:39;100558.00;;;14.50
20733;BMP180;10527;52.124;5.196;2023-03-12T08:48:06;100552.00;;;14.50
20733;BMP180;10527;52.124;5.196;2023-03-12T08:50:33;100553.00;;;14.60
20733;BMP180;10527;52.124;5.196;2023-03-12T08:53:00;100556.00;;;14.60
20733;BMP180;10527;52.124;5.196;2023-03-12T08:55:30;100561.00;;;14.60
20733;BMP180;10527;52.124;5.196;2023-03-12T08:57:59;100566.00;;;14.70
20733;BMP180;10527;52.124;5.196;2023-03-12T09:00:26;100570.00;;;14.70
20733;BMP180;10527;52.124;5.196;2023-03-12T09:02:53;100572.00;;;14.80
20733;BMP180;10527;52.124;5.196;2023-03-12T09:05:20;100566.00;;;14.80
20733;BMP180;10527;52.124;5.196;2023-03-12T09:07:46;100562.00;;;14.90
20733;BMP180;10527;52.124;5.196;2023-03-12T09:10:24;100562.00;;;15.00
20733;BMP180;10527;52.124;5.196;2023-03-12T09:12:56;100555.00;;;15.00
20733;BMP180;10527;52.124;5.196;2023-03-12T09:15:28;100553.00;;;15.10
20733;BMP180;10527;52.124;5.196;2023-03-12T09:17:56;100542.00;;;15.20
20733;BMP180;10527;52.124;5.196;2023-03-12T09:20:24;100550.00;;;15.20
20733;BMP180;10527;52.124;5.196;2023-03-12T09:22:51;100539.00;;;15.30
20733;BMP180;10527;52.124;5.196;2023-03-12T09:25:18;100538.00;;;15.30
20733;BMP180;10527;52.124;5.196;2023-03-12T09:27:46;100544.00;;;15.40
20733;BMP180;10527;52.124;5.196;2023-03-12T09:30:21;100559.00;;;15.50
20733;BMP180;10527;52.124;5.196;2023-03-12T09:32:53;100551.00;;;15.50
20733;BMP180;10527;52.124;5.196;2023-03-12T09:35:20;100556.00;;;15.60
20733;BMP180;10527;52.124;5.196;2023-03-12T09:37:48;100562.00;;;15.70
20733;BMP180;10527;52.124;5.196;2023-03-12T09:40:22;100561.00;;;15.80
20733;BMP180;10527;52.124;5.196;2023-03-12T09:42:56;100562.00;;;15.80
20733;BMP180;10527;52.124;5.196;2023-03-12T09:45:46;100554.00;;;15.90
20733;BMP180;10527;52.124;5.196;2023-03-12T09:48:27;100559.00;;;16.00
20733;BMP180;10527;52.124;5.196;2023-03-12T09:51:00;100564.00;;;16.00
20733;BMP180;10527;52.124;5.196;2023-03-12T09:53:39;100562.00;;;16.10
20733;BMP180;10527;52.124;5.196;2023-03-12T09:56:15;100565.00;;;16.20
20733;BMP180;10527;52.124;5.196;2023-03-12T09:58:44;100575.00;;;16.30
20733;BMP180;10527;52.124;5.196;2023-03-12T10:01:57;100567.00;;;16.40
20733;BMP180;10527;52.124;5.196;2023-03-12T10:04:41;100563.00;;;16.40
20733;BMP180;10527;52.124;5.196;2023-03-12T10:07:34;100567.00;;;16.50
20733;BMP180;10527;52.124;5.196;2023-03-12T10:16:13;100569.00;;;16.80
20733;BMP180;10527;52.124;5.196;2023-03-12T10:19:23;100561.00;;;16.90
20733;BMP180;10527;52.124;5.196;2023-03-12T10:28:16;100571.00;;;17.10
20733;BMP180;10527;52.124;5.196;2023-03-12T10:31:24;100566.00;;;17.20
20733;BMP180;10527;52.124;5.196;2023-03-12T10:34:00;100576.00;;;17.20
20733;BMP180;10527;52.124;5.196;2023-03-12T10:36:41;100577.00;;;17.30
20733;BMP180;10527;52.124;5.196;2023-03-12T10:39:19;100568.00;;;17.50
20733;BMP180;10527;52.124;5.196;2023-03-12T10:41:47;100567.00;;;17.50
20733;BMP180;10527;52.124;5.196;2023-03-12T10:44:23;100570.00;;;17.60
20733;BMP180;10527;52.124;5.196;2023-03-12T10:47:04;100562.00;;;17.70
20733;BMP180;10527;52.124;5.196;2023-03-12T10:49:36;100558.00;;;17.80
20733;BMP180;10527;52.124;5.196;2023-03-12T10:52:17;100570.00;;;17.90
20733;BMP180;10527;52.124;5.196;2023-03-12T10:57:55;100576.00;;;18.00
20733;BMP180;10527;52.124;5.196;2023-03-12T11:00:27;100566.00;;;18.10
20733;BMP180;10527;52.124;5.196;2023-03-12T11:03:02;100586.00;;;18.10
20733;BMP180;10527;52.124;5.196;2023-03-12T11:05:36;100569.00;;;18.20
20733;BMP180;10527;52.124;5.196;2023-03-12T11:08:35;100571.00;;;18.30
20733;BMP180;10527;52.124;5.196;2023-03-12T11:11:11;100559.00;;;18.30
20733;BMP180;10527;52.124;5.196;2023-03-12T11:13:40;100576.00;;;18.30
20733;BMP180;10527;52.124;5.196;2023-03-12T11:19:09;100596.00;;;18.40
20733;BMP180;10527;52.124;5.196;2023-03-12T11:22:11;100604.00;;;18.50
20733;BMP180;10527;52.124;5.196;2023-03-12T11:25:02;100601.00;;;18.60
20733;BMP180;10527;52.124;5.196;2023-03-12T11:27:46;100605.00;;;18.60
20733;BMP180;10527;52.124;5.196;2023-03-12T11:30:22;100602.00;;;18.60
20733;BMP180;10527;52.124;5.196;2023-03-12T11:32:51;100599.00;;;18.70
20733;BMP180;10527;52.124;5.196;2023-03-12T11:35:49;100594.00;;;18.70
20733;BMP180;10527;52.124;5.196;2023-03-12T11:38:37;100601.00;;;18.70
20733;BMP180;10527;52.124;5.196;2023-03-12T11:42:03;100590.00;;;18.80
20733;BMP180;10527;52.124;5.196;2023-03-12T11:44:44;100589.00;;;18.80
20733;BMP180;10527;52.124;5.196;2023-03-12T11:50:36;100580.00;;;18.90
20733;BMP180;10527;52.124;5.196;2023-03-12T11:53:35;100578.00;;;18.90
20733;BMP180;10527;52.124;5.196;2023-03-12T11:56:33;100581.00;;;18.90
20733;BMP180;10527;52.124;5.196;2023-03-12T12:08:31;100560.00;;;19.00
20733;BMP180;10527;52.124;5.196;2023-03-12T12:11:20;100559.00;;;19.00
20733;BMP180;10527;52.124;5.196;2023-03-12T12:20:09;100560.00;;;19.10
20733;BMP180;10527;52.124;5.196;2023-03-12T12:26:12;100551.00;;;19.30
20733;BMP180;10527;52.124;5.196;2023-03-12T12:31:57;100543.00;;;19.30
20733;BMP180;10527;52.124;5.196;2023-03-12T12:38:13;100551.00;;;19.50
20733;BMP180;10527;52.124;5.196;2023-03-12T12:43:32;100565.00;;;19.50
20733;BMP180;10527;52.124;5.196;2023-03-12T12:46:17;100567.00;;;19.60
20733;BMP180;10527;52.124;5.196;2023-03-12T12:48:54;100549.00;;;19.60
20733;BMP180;10527;52.124;5.196;2023-03-12T12:51:29;100537.00;;;19.70
20733;BMP180;10527;52.124;5.196;2023-03-12T12:54:30;100530.00;;;19.70
20733;BMP180;10527;52.124;5.196;2023-03-12T13:00:36;100521.00;;;19.90
20733;BMP180;10527;52.124;5.196;2023-03-12T13:03:05;100518.00;;;19.90
20733;BMP180;10527;52.124;5.196;2023-03-12T13:05:57;100510.00;;;20.00
20733;BMP180;10527;52.124;5.196;2023-03-12T13:14:15;100518.00;;;20.20
20733;BMP180;10527;52.124;5.196;2023-03-12T13:16:48;100523.00;;;20.30
20733;BMP180;10527;52.124;5.196;2023-03-12T13:22:28;100528.00;;;20.40
20733;BMP180;10527;52.124;5.196;2023-03-12T13:25:15;100520.00;;;20.40
20733;BMP180;10527;52.124;5.196;2023-03-12T13:28:02;100521.00;;;20.40
20733;BMP180;10527;52.124;5.196;2023-03-12T13:30:50;100516.00;;;20.30
20733;BMP180;10527;52.124;5.196;2023-03-12T13:33:42;100524.00;;;20.30
20733;BMP180;10527;52.124;5.196;2023-03-12T13:36:24;100531.00;;;20.30
20733;BMP180;10527;52.124;5.196;2023-03-12T13:41:40;100523.00;;;20.40
20733;BMP180;10527;52.124;5.196;2023-03-12T13:47:21;100538.00;;;20.50
20733;BMP180;10527;52.124;5.196;2023-03-12T13:50:04;100528.00;;;20.60
20733;BMP180;10527;52.124;5.196;2023-03-12T13:52:40;100527.00;;;20.60
20733;BMP180;10527;52.124;5.196;2023-03-12T13:58:14;100524.00;;;20.80
20733;BMP180;10527;52.124;5.196;2023-03-12T14:01:03;100527.00;;;20.90
20733;BMP180;10527;52.124;5.196;2023-03-12T14:03:46;100526.00;;;20.90
20733;BMP180;10527;52.124;5.196;2023-03-12T14:06:25;100539.00;;;21.00
20733;BMP180;10527;52.124;5.196;2023-03-12T14:09:21;100551.00;;;21.10
20733;BMP180;10527;52.124;5.196;2023-03-12T14:12:16;100548.00;;;21.20
20733;BMP180;10527;52.124;5.196;2023-03-12T14:15:28;100534.00;;;21.20
20733;BMP180;10527;52.124;5.196;2023-03-12T14:18:12;100558.00;;;21.20
20733;BMP180;10527;52.124;5.196;2023-03-12T14:20:51;100545.00;;;21.20
20733;BMP180;10527;52.124;5.196;2023-03-12T14:23:20;100567.00;;;21.30
20733;BMP180;10527;52.124;5.196;2023-03-12T14:25:48;100576.00;;;21.30
20733;BMP180;10527;52.124;5.196;2023-03-12T14:28:21;100566.00;;;21.30
20733;BMP180;10527;52.124;5.196;2023-03-12T14:31:16;100580.00;;;21.40
20733;BMP180;10527;52.124;5.196;2023-03-12T14:34:05;100583.00;;;21.40
20733;BMP180;10527;52.124;5.196;2023-03-12T14:36:49;100572.00;;;21.40
20733;BMP180;10527;52.124;5.196;2023-03-12T14:39:44;100589.00;;;21.40
20733;BMP180;10527;52.124;5.196;2023-03-12T14:42:28;100565.00;;;21.40
20733;BMP180;10527;52.124;5.196;2023-03-12T14:45:13;100574.00;;;21.40
20733;BMP180;10527;52.124;5.196;2023-03-12T14:47:47;100579.00;;;21.40
20733;BMP180;10527;52.124;5.196;2023-03-12T14:50:28;100575.00;;;21.30
20733;BMP180;10527;52.124;5.196;2023-03-12T14:53:25;100582.00;;;21.40
20733;BMP180;10527;52.124;5.196;2023-03-12T14:56:03;100588.00;;;21.30
20733;BMP180;10527;52.124;5.196;2023-03-12T14:58:42;100587.00;;;21.30
20733;BMP180;10527;52.124;5.196;2023-03-12T15:01:18;100573.00;;;21.30
20733;BMP180;10527;52.124;5.196;2023-03-12T15:04:13;100577.00;;;21.40
20733;BMP180;10527;52.124;5.196;2023-03-12T15:06:55;100572.00;;;21.40
20733;BMP180;10527;52.124;5.196;2023-03-12T15:09:28;100593.00;;;21.40
20733;BMP180;10527;52.124;5.196;2023-03-12T15:12:16;100597.00;;;21.40
20733;BMP180;10527;52.124;5.196;2023-03-12T15:14:44;100587.00;;;21.30
20733;BMP180;10527;52.124;5.196;2023-03-12T15:17:18;100598.00;;;21.40
20733;BMP180;10527;52.124;5.196;2023-03-12T15:19:46;100571.00;;;21.30
20733;BMP180;10527;52.124;5.196;2023-03-12T15:22:19;100576.00;;;21.30
20733;BMP180;10527;52.124;5.196;2023-03-12T15:24:47;100568.00;;;21.30
20733;BMP180;10527;52.124;5.196;2023-03-12T15:30:00;100564.00;;;21.20
20733;BMP180;10527;52.124;5.196;2023-03-12T15:32:27;100559.00;;;21.20
20733;BMP180;10527;52.124;5.196;2023-03-12T15:34:57;100553.00;;;21.20
20733;BMP180;10527;52.124;5.196;2023-03-12T15:37:35;100558.00;;;21.20
20733;BMP180;10527;52.124;5.196;2023-03-12T15:40:23;100568.00;;;21.20
20733;BMP180;10527;52.124;5.196;2023-03-12T15:42:52;100558.00;;;21.10
20733;BMP180;10527;52.124;5.196;2023-03-12T15:45:37;100556.00;;;21.10